Time;durP1;ratioP1;P1;durP2;ratioP2;P2;SDS_P1;SDS_P2;PMS_P1;PMS_P2;Temp;Humidity;BMP_temperature;BMP_pressure;BME280_temperature;BME280_humidity;BME280_pressure;Samples;Min_cycle;Max_cycle;Signal;HPM_P1;HPM_P2
2021/06/05 12:46:34;;;;;;;;;7.50;6.25;;;;;22.11;100.00;102232.22;5143369;27;45516;-71
2021/06/05 12:49:04;;;;;;;;;8.50;7.00;;;;;22.21;100.00;102230.09;5108087;27;45473;-73
2021/06/05 12:51:34;;;;;;;;;9.00;8.50;;;;;22.37;100.00;102240.97;5092909;27;45352;-66
2021/06/05 12:54:09;;;;;;;;;7.00;7.00;;;;;22.43;100.00;102238.97;5090604;27;45550;-65
2021/06/05 12:56:42;;;;;;;;;8.00;7.75;;;;;22.37;100.00;102239.19;5089664;27;46480;-64
2021/06/05 12:59:27;;;;;;;;;2.25;2.00;;;;;22.23;100.00;102237.09;5088517;27;46625;-64
2021/06/05 13:01:53;;;;;;;;;8.50;7.75;;;;;22.06;100.00;102223.56;5092793;27;45434;-64
2021/06/05 13:04:34;;;;;;;;;7.50;7.50;;;;;21.97;100.00;102226.56;5088108;27;45618;-64
2021/06/05 13:07:05;;;;;;;;;8.00;7.75;;;;;21.94;100.00;102222.19;5092137;27;46226;-65
2021/06/05 13:09:31;;;;;;;;;8.00;6.50;;;;;21.97;100.00;102234.53;5091865;27;45656;-67
2021/06/05 13:12:02;;;;;;;;;7.00;7.00;;;;;21.95;100.00;102231.03;5085678;27;45332;-65
2021/06/05 13:14:37;;;;;;;;;9.50;9.25;;;;;22.00;100.00;102226.44;5081165;27;45487;-64
2021/06/05 13:17:14;;;;;;;;;8.00;7.25;;;;;22.05;100.00;102221.84;5085465;27;45564;-64
2021/06/05 13:19:41;;;;;;;;;8.25;7.00;;;;;22.11;100.00;102220.72;5081247;27;45488;-67
2021/06/05 13:22:14;;;;;;;;;8.00;7.00;;;;;22.21;100.00;102216.78;5081807;27;45415;-66
2021/06/05 13:25:17;;;;;;;;;5.25;4.75;;;;;22.34;100.00;102217.16;5077905;27;45420;-66
2021/06/05 13:28:00;;;;;;;;;10.25;7.25;;;;;22.52;100.00;102227.06;5081158;27;47501;-66
2021/06/05 13:30:38;;;;;;;;;6.50;6.50;;;;;22.56;100.00;102223.34;5081765;27;45619;-64
2021/06/05 13:33:23;;;;;;;;;7.00;7.00;;;;;22.59;100.00;102220.56;5081744;27;45466;-65
2021/06/05 13:35:50;;;;;;;;;4.75;4.25;;;;;22.62;100.00;102217.75;5080061;27;45761;-65
2021/06/05 13:38:19;;;;;;;;;6.75;5.25;;;;;22.62;100.00;102217.75;5086765;27;47214;-66
2021/06/05 13:40:45;;;;;;;;;6.00;6.00;;;;;22.61;100.00;102218.69;5081600;27;45545;-69
2021/06/05 13:43:10;;;;;;;;;5.75;4.75;;;;;22.54;100.00;102217.22;5090593;27;45443;-65
2021/06/05 13:45:36;;;;;;;;;5.75;5.00;;;;;22.44;100.00;102214.09;5091906;27;45478;-66
2021/06/05 13:48:02;;;;;;;;;6.25;6.00;;;;;22.36;100.00;102220.63;5091091;27;47007;-64
2021/06/05 13:50:34;;;;;;;;;5.00;5.00;;;;;22.25;100.00;102218.41;5095638;27;45626;-64
2021/06/05 13:53:09;;;;;;;;;4.00;3.25;;;;;22.18;100.00;102230.19;5091109;27;45442;-66
2021/06/05 13:55:39;;;;;;;;;3.50;3.50;;;;;22.09;100.00;102227.91;5090137;27;45529;-66
2021/06/05 13:58:06;;;;;;;;;5.75;5.25;;;;;22.01;100.00;102228.16;5077526;27;46653;-65
2021/06/05 14:00:31;;;;;;;;;4.50;4.50;;;;;21.93;100.00;102233.75;5063584;27;45325;-65
2021/06/05 14:02:57;;;;;;;;;5.75;5.25;;;;;21.89;100.00;102228.63;5077459;27;45404;-66
2021/06/05 14:05:23;;;;;;;;;4.25;4.25;;;;;21.84;100.00;102231.47;5076858;28;45472;-66
2021/06/05 14:07:49;;;;;;;;;4.00;4.00;;;;;21.80;100.00;102237.81;5077361;27;47454;-67
2021/06/05 14:10:16;;;;;;;;;4.50;4.50;;;;;21.67;100.00;102221.44;5076613;27;45803;-66
2021/06/05 14:12:43;;;;;;;;;6.00;4.25;;;;;21.73;100.00;102241.63;5073424;27;45524;-65
2021/06/05 14:15:17;;;;;;;;;4.75;4.75;;;;;21.67;100.00;102239.19;5075924;28;45488;-66
2021/06/05 14:17:42;;;;;;;;;4.50;4.50;;;;;21.64;100.00;102237.50;5077261;28;46262;-66
2021/06/05 14:20:09;;;;;;;;;3.75;3.00;;;;;21.63;100.00;102235.78;5076630;27;45356;-65
2021/06/05 14:22:34;;;;;;;;;4.50;4.50;;;;;21.60;100.00;102229.72;5076448;28;45476;-66
2021/06/05 14:25:00;;;;;;;;;5.25;5.00;;;;;21.62;100.00;102227.84;5076703;28;45366;-66
2021/06/05 14:27:25;;;;;;;;;5.00;5.00;;;;;21.68;100.00;102230.28;5077556;27;45524;-66
2021/06/05 14:29:50;;;;;;;;;5.00;4.00;;;;;21.70;100.00;102228.44;5076875;27;45504;-67
2021/06/05 14:32:16;;;;;;;;;4.75;4.00;;;;;21.69;100.00;102222.25;5077362;27;45254;-66
2021/06/05 14:34:41;;;;;;;;;5.00;5.00;;;;;21.69;100.00;102230.22;5077990;27;45519;-66
2021/06/05 14:37:07;;;;;;;;;5.25;4.00;;;;;21.71;100.00;102230.16;5055695;28;48124;-65
2021/06/05 14:39:32;;;;;;;;;4.75;4.25;;;;;21.67;100.00;102229.41;5075763;28;45382;-66
2021/06/05 14:42:01;;;;;;;;;6.00;5.00;;;;;21.70;100.00;102231.09;5077475;27;45748;-65
2021/06/05 14:44:27;;;;;;;;;5.75;4.50;;;;;21.68;100.00;102228.50;5062138;27;45677;-69
2021/06/05 14:46:54;;;;;;;;;8.75;8.00;;;;;21.68;100.00;102224.97;5070703;28;48245;-65
2021/06/05 14:49:20;;;;;;;;;5.75;5.75;;;;;21.68;100.00;102220.50;5074831;27;46111;-66
2021/06/05 14:51:46;;;;;;;;;5.00;4.00;;;;;21.68;100.00;102223.16;5076164;28;45375;-71
2021/06/05 14:54:14;;;;;;;;;5.50;4.75;;;;;21.71;100.00;102227.50;5077435;27;45426;-66
2021/06/05 14:56:40;;;;;;;;;5.25;5.25;;;;;21.71;100.00;102220.41;5075803;28;48176;-66
2021/06/05 14:59:07;;;;;;;;;4.75;4.00;;;;;21.79;100.00;102224.59;5076595;27;45458;-65
2021/06/05 15:01:32;;;;;;;;;4.75;3.50;;;;;21.85;100.00;102219.03;5057129;28;45372;-66
2021/06/05 15:03:58;;;;;;;;;5.00;4.50;;;;;21.88;100.00;102218.91;5075896;27;45639;-65
2021/06/05 15:06:23;;;;;;;;;4.75;4.00;;;;;21.97;100.00;102223.91;5091565;27;47325;-67
2021/06/05 15:08:52;;;;;;;;;3.50;3.50;;;;;22.05;100.00;102215.66;5073703;28;45467;-69
2021/06/05 15:11:23;;;;;;;;;5.00;5.00;;;;;22.08;100.00;102208.41;5074991;28;45489;-73
2021/06/05 15:13:48;;;;;;;;;3.00;2.50;;;;;22.16;100.00;102213.41;5072855;28;45912;-67
2021/06/05 15:16:14;;;;;;;;;7.25;7.00;;;;;22.25;100.00;102216.59;5076146;27;45514;-66
2021/06/05 15:18:40;;;;;;;;;4.00;4.00;;;;;22.30;100.00;102206.63;5071805;28;45802;-67
2021/06/05 15:21:06;;;;;;;;;3.50;3.00;;;;;22.45;100.00;102220.28;5074851;28;45584;-64
2021/06/05 15:23:31;;;;;;;;;4.25;3.50;;;;;22.44;100.00;102202.56;5077221;27;45388;-65
2021/06/05 15:25:57;;;;;;;;;2.75;2.75;;;;;22.61;100.00;102216.91;5076159;27;45470;-69
2021/06/05 15:28:22;;;;;;;;;3.50;3.25;;;;;22.69;100.00;102205.97;5075404;27;45434;-68
2021/06/05 15:30:50;;;;;;;;;4.75;4.50;;;;;22.80;100.00;102205.50;5076365;27;45402;-69
2021/06/05 15:33:19;;;;;;;;;4.00;4.00;;;;;22.92;100.00;102205.03;5075681;28;45503;-66
2021/06/05 15:35:45;;;;;;;;;6.00;5.75;;;;;23.04;100.00;102201.81;5076501;27;45650;-66
2021/06/05 15:38:12;;;;;;;;;4.50;4.50;;;;;23.14;100.00;102194.31;5076455;27;45546;-65
2021/06/05 15:40:39;;;;;;;;;5.00;4.50;;;;;23.34;100.00;102201.44;5076086;27;45417;-64
2021/06/05 15:43:06;;;;;;;;;6.25;5.75;;;;;23.44;100.00;102198.28;5076186;28;45520;-65
2021/06/05 15:45:40;;;;;;;;;4.00;4.00;;;;;23.62;100.00;102196.63;5074367;28;45850;-64
2021/06/05 15:48:11;;;;;;;;;5.75;4.75;;;;;23.77;100.00;102192.38;5076062;27;45388;-65
2021/06/05 15:50:37;;;;;;;;;5.00;4.00;;;;;23.88;100.00;102194.53;5074982;28;45542;-66
2021/06/05 15:53:03;;;;;;;;;3.75;3.75;;;;;23.99;100.00;102190.44;5074608;27;45466;-64
2021/06/05 15:55:29;;;;;;;;;3.75;3.75;;;;;24.08;100.00;102187.34;5074789;28;46647;-65
2021/06/05 15:57:54;;;;;;;;;4.75;4.75;;;;;24.20;100.00;102193.00;5064821;28;45369;-66
2021/06/05 16:00:25;;;;;;;;;4.75;4.75;;;;;24.26;100.00;102196.25;5074495;28;45569;-64
2021/06/05 16:02:50;;;;;;;;;3.25;3.25;;;;;24.23;100.00;102188.41;5074302;28;45776;-65
2021/06/05 16:05:18;;;;;;;;;5.75;4.00;;;;;24.24;100.00;102187.47;5074413;28;47113;-66
2021/06/05 16:07:44;;;;;;;;;2.25;2.25;;;;;24.19;100.00;102188.59;5075147;27;45416;-60
2021/06/05 16:10:11;;;;;;;;;2.50;2.00;;;;;24.13;100.00;102185.31;5075650;27;45462;-62
2021/06/05 16:12:37;;;;;;;;;4.00;3.50;;;;;24.09;100.00;102183.72;5075750;27;45540;-63
2021/06/05 16:15:06;;;;;;;;;6.50;5.25;;;;;23.99;100.00;102181.56;5074945;27;45621;-62
2021/06/05 16:17:31;;;;;;;;;5.00;5.00;;;;;23.81;100.00;102186.84;5075938;28;45420;-61
2021/06/05 16:19:57;;;;;;;;;9.25;7.75;;;;;23.66;100.00;102179.53;5075729;27;45472;-61
2021/06/05 16:22:22;;;;;;;;;5.75;5.50;;;;;23.51;100.00;102181.06;5071980;28;45521;-63
2021/06/05 16:24:48;;;;;;;;;4.50;4.50;;;;;23.38;100.00;102177.22;5074705;27;45469;-61
2021/06/05 16:27:13;;;;;;;;;13.50;12.25;;;;;23.32;100.00;102176.66;5075720;27;45485;-61
2021/06/05 16:29:39;;;;;;;;;6.75;6.00;;;;;23.23;100.00;102177.91;5075593;27;45523;-61
2021/06/05 16:32:05;;;;;;;;;6.00;6.00;;;;;23.20;100.00;102178.03;5075745;27;45392;-62
2021/06/05 16:34:32;;;;;;;;;4.25;3.00;;;;;23.15;100.00;102174.72;5075342;27;46216;-61
2021/06/05 16:36:58;;;;;;;;;6.25;6.00;;;;;23.17;100.00;102180.84;5075633;28;45503;-62
2021/06/05 16:39:23;;;;;;;;;9.50;8.00;;;;;23.13;100.00;102184.59;5075749;27;45396;-61
2021/06/05 16:41:52;;;;;;;;;8.50;8.50;;;;;23.05;100.00;102179.56;5075533;27;45324;-61
2021/06/05 16:44:19;;;;;;;;;4.75;3.75;;;;;23.00;100.00;102178.91;5072821;28;47245;-62
2021/06/05 16:46:45;;;;;;;;;3.75;3.75;;;;;22.96;100.00;102179.13;5075113;28;46060;-62
2021/06/05 16:49:10;;;;;;;;;4.00;4.00;;;;;22.90;100.00;102180.25;5074373;28;45396;-61
2021/06/05 16:51:36;;;;;;;;;3.00;3.00;;;;;22.89;100.00;102189.19;5075650;27;45531;-62
2021/06/05 16:54:02;;;;;;;;;2.75;2.75;;;;;22.86;100.00;102184.84;5074853;27;46499;-62
2021/06/05 16:56:30;;;;;;;;;2.75;2.75;;;;;22.83;100.00;102178.75;5075994;27;45702;-62
2021/06/05 16:58:56;;;;;;;;;3.00;2.75;;;;;22.80;100.00;102179.72;5077318;27;45685;-65
2021/06/05 17:01:26;;;;;;;;;3.50;3.50;;;;;22.73;100.00;102186.25;5080030;27;46493;-63
2021/06/05 17:03:52;;;;;;;;;4.00;3.00;;;;;22.70;100.00;102194.38;5076689;27;46560;-61
2021/06/05 17:06:18;;;;;;;;;2.75;2.50;;;;;22.64;100.00;102194.63;5074478;27;45682;-61
2021/06/05 17:08:44;;;;;;;;;2.75;2.75;;;;;22.56;100.00;102199.38;5081118;27;45421;-64
2021/06/05 17:11:10;;;;;;;;;3.75;3.00;;;;;22.52;100.00;102196.00;5069422;27;45620;-64
2021/06/05 17:13:36;;;;;;;;;2.75;2.50;;;;;22.46;100.00;102193.59;5079632;27;46248;-65
2021/06/05 17:16:02;;;;;;;;;3.75;3.75;;;;;22.42;100.00;102191.13;5074711;27;45438;-64
2021/06/05 17:18:30;;;;;;;;;3.25;3.25;;;;;22.41;100.00;102187.59;5080896;27;45416;-64
2021/06/05 17:20:57;;;;;;;;;2.75;2.75;;;;;22.37;100.00;102187.75;5079534;27;45879;-64
2021/06/05 17:23:27;;;;;;;;;4.00;3.75;;;;;22.24;100.00;102172.28;5080785;27;45833;-65
2021/06/05 17:25:55;;;;;;;;;7.00;7.00;;;;;22.38;100.00;102197.47;5073513;27;45751;-65
2021/06/05 17:28:21;;;;;;;;;8.25;8.25;;;;;22.43;100.00;102198.19;5077929;27;45487;-64
2021/06/05 17:30:49;;;;;;;;;8.75;8.50;;;;;22.44;100.00;102197.25;5073058;28;45564;-68
2021/06/05 17:33:14;;;;;;;;;5.50;4.00;;;;;22.48;100.00;102198.84;5077896;27;46456;-65
2021/06/05 17:35:44;;;;;;;;;3.75;3.75;;;;;22.55;100.00;102210.97;5083045;27;45570;-65
2021/06/05 17:38:11;;;;;;;;;3.00;3.00;;;;;22.59;100.00;102205.44;5077346;28;45450;-64
2021/06/05 17:40:37;;;;;;;;;3.25;3.25;;;;;22.58;100.00;102208.19;5078561;28;45470;-64
2021/06/05 17:43:05;;;;;;;;;4.00;4.00;;;;;22.64;100.00;102207.94;5077703;27;46449;-63
2021/06/05 17:45:35;;;;;;;;;4.25;4.25;;;;;22.67;100.00;102212.28;5077069;27;45375;-70
2021/06/05 17:48:01;;;;;;;;;12.00;11.25;;;;;22.65;100.00;102211.47;5077949;27;45477;-65
2021/06/05 17:50:27;;;;;;;;;3.00;2.75;;;;;22.69;100.00;102218.41;5078648;27;45357;-63
2021/06/05 17:52:52;;;;;;;;;5.75;5.50;;;;;22.64;100.00;102202.63;5077212;27;45593;-63
2021/06/05 17:55:24;;;;;;;;;4.50;4.25;;;;;22.69;100.00;102210.41;5077596;27;45443;-63
2021/06/05 17:57:51;;;;;;;;;4.50;4.25;;;;;22.68;100.00;102209.56;5077459;27;45829;-62
2021/06/05 18:00:20;;;;;;;;;7.75;7.50;;;;;22.68;100.00;102209.56;5078088;27;45525;-62
2021/06/05 18:02:47;;;;;;;;;5.75;5.75;;;;;22.66;100.00;102208.75;5076312;27;46864;-61
2021/06/05 18:05:14;;;;;;;;;5.75;5.00;;;;;22.58;100.00;102192.19;5078085;28;45369;-62
2021/06/05 18:07:39;;;;;;;;;4.00;4.00;;;;;22.58;100.00;102206.38;5077560;27;45501;-61
2021/06/05 18:10:07;;;;;;;;;6.00;6.00;;;;;22.56;100.00;102210.91;5077990;27;45545;-61
2021/06/05 18:12:34;;;;;;;;;4.75;4.00;;;;;22.54;100.00;102207.44;5076022;27;46517;-61
2021/06/05 18:14:59;;;;;;;;;5.50;5.00;;;;;22.49;100.00;102212.09;5075927;28;45523;-61
2021/06/05 18:17:25;;;;;;;;;3.75;3.75;;;;;22.49;100.00;102203.25;5077727;27;45417;-62
2021/06/05 18:19:50;;;;;;;;;4.50;4.50;;;;;22.50;100.00;102205.84;5077619;27;45459;-63
2021/06/05 18:22:16;;;;;;;;;4.75;4.75;;;;;22.45;100.00;102209.63;5077348;27;45640;-65
2021/06/05 18:24:45;;;;;;;;;4.00;3.50;;;;;22.40;100.00;102200.94;5077831;27;45430;-62
2021/06/05 18:27:13;;;;;;;;;4.75;4.50;;;;;22.36;100.00;102199.31;5077448;27;45394;-65
2021/06/05 18:29:40;;;;;;;;;3.75;3.75;;;;;22.28;100.00;102205.84;5076332;28;45685;-66
2021/06/05 18:32:08;;;;;;;;;4.75;4.75;;;;;22.30;100.00;102209.31;5077492;27;45372;-65
2021/06/05 18:34:35;;;;;;;;;5.50;4.50;;;;;22.27;100.00;102208.56;5077423;28;45411;-65
2021/06/05 18:37:01;;;;;;;;;5.50;5.25;;;;;22.22;100.00;102202.56;5076718;27;45442;-62
2021/06/05 18:39:27;;;;;;;;;4.00;3.00;;;;;22.20;100.00;102205.28;5077596;28;45937;-61
2021/06/05 18:41:54;;;;;;;;;6.00;5.50;;;;;22.17;100.00;102205.38;5072560;27;45623;-62
2021/06/05 18:44:26;;;;;;;;;7.00;7.00;;;;;22.18;100.00;102209.81;5071851;27;45416;-64
2021/06/05 18:46:52;;;;;;;;;6.00;5.00;;;;;22.12;100.00;102204.69;5076997;27;45539;-73
2021/06/05 18:49:17;;;;;;;;;7.00;7.00;;;;;22.11;100.00;102216.25;5074669;27;45388;-75
2021/06/05 18:51:46;;;;;;;;;5.50;5.50;;;;;22.09;100.00;102218.13;5078726;27;45437;-75
2021/06/05 18:54:14;;;;;;;;;7.00;6.75;;;;;22.01;100.00;102215.72;5073031;27;45825;-76
2021/06/05 18:56:40;;;;;;;;;7.00;6.00;;;;;21.99;100.00;102216.72;5069027;27;45553;-71
2021/06/05 18:59:06;;;;;;;;;5.00;5.00;;;;;21.93;100.00;102223.13;5079920;27;45561;-68
2021/06/05 19:01:35;;;;;;;;;6.00;5.00;;;;;21.86;100.00;102218.09;5082521;27;47399;-69
2021/06/05 19:04:01;;;;;;;;;5.75;5.50;;;;;21.80;100.00;102221.88;5075977;27;45573;-66
2021/06/05 19:06:28;;;;;;;;;9.75;9.50;;;;;21.71;100.00;102217.75;5086698;27;45511;-66
2021/06/05 19:08:58;;;;;;;;;7.00;7.00;;;;;21.69;100.00;102226.69;5066180;28;45476;-66
2021/06/05 19:11:25;;;;;;;;;6.00;6.00;;;;;21.67;100.00;102233.88;5062052;28;46418;-68
2021/06/05 19:13:53;;;;;;;;;13.75;12.00;;;;;21.59;100.00;102233.28;5072870;28;45959;-68
2021/06/05 19:16:20;;;;;;;;;9.00;9.00;;;;;21.53;100.00;102230.88;5067329;27;45493;-73
2021/06/05 19:18:46;;;;;;;;;7.75;7.50;;;;;21.48;100.00;102230.13;5065592;28;45474;-68
2021/06/05 19:21:13;;;;;;;;;7.00;6.00;;;;;21.44;100.00;102241.81;5065235;28;46144;-67
2021/06/05 19:23:41;;;;;;;;;12.50;10.25;;;;;21.30;100.00;102232.56;5064087;28;45647;-67
2021/06/05 19:26:13;;;;;;;;;16.00;15.25;;;;;21.33;100.00;102244.84;5062665;27;45490;-68
2021/06/05 19:28:39;;;;;;;;;7.00;6.00;;;;;21.26;100.00;102244.19;5075062;27;45507;-67
2021/06/05 19:31:05;;;;;;;;;6.50;6.00;;;;;21.21;100.00;102247.88;5075488;27;45438;-72
2021/06/05 19:33:35;;;;;;;;;8.75;8.25;;;;;21.05;100.00;102240.47;5066100;27;45434;-68
2021/06/05 19:36:01;;;;;;;;;8.25;7.50;;;;;21.11;100.00;102263.28;5073931;28;45472;-67
2021/06/05 19:38:27;;;;;;;;;11.50;11.50;;;;;21.05;100.00;102252.88;5076353;27;45406;-66
2021/06/05 19:40:53;;;;;;;;;6.25;6.00;;;;;20.96;100.00;102259.34;5074420;28;47965;-65
2021/06/05 19:43:21;;;;;;;;;7.00;5.75;;;;;20.89;100.00;102259.63;5076464;27;45584;-66
2021/06/05 19:45:49;;;;;;;;;7.00;5.00;;;;;20.88;100.00;102261.41;5076308;28;45327;-66
2021/06/05 19:48:16;;;;;;;;;7.00;7.00;;;;;20.84;100.00;102265.06;5075013;27;45606;-67
2021/06/05 19:50:41;;;;;;;;;7.00;7.00;;;;;20.75;100.00;102268.00;5076533;27;45446;-66
2021/06/05 19:53:09;;;;;;;;;7.75;7.00;;;;;20.72;100.00;102274.28;5075388;27;46024;-71
2021/06/05 19:55:42;;;;;;;;;10.00;7.75;;;;;20.68;100.00;102280.63;5075901;28;45406;-67
2021/06/05 19:58:14;;;;;;;;;10.50;10.50;;;;;20.55;100.00;102267.78;5075449;27;45526;-66
2021/06/05 20:00:40;;;;;;;;;7.75;7.00;;;;;20.54;100.00;102276.66;5075782;28;46205;-67
2021/06/05 20:03:07;;;;;;;;;5.50;5.50;;;;;20.51;100.00;102279.41;5074692;28;45658;-67
2021/06/05 20:05:35;;;;;;;;;8.50;7.00;;;;;20.45;100.00;102277.81;5076046;27;45418;-66
2021/06/05 20:08:01;;;;;;;;;5.50;4.50;;;;;20.39;100.00;102284.16;5075933;27;45865;-66
2021/06/05 20:10:29;;;;;;;;;7.50;6.50;;;;;20.26;100.00;102269.50;5074435;28;48283;-67
2021/06/05 20:12:55;;;;;;;;;6.75;6.50;;;;;20.29;100.00;102285.34;5075984;28;45716;-66
2021/06/05 20:15:24;;;;;;;;;6.00;6.00;;;;;20.24;100.00;102289.03;5074081;27;45536;-66
2021/06/05 20:17:49;;;;;;;;;6.50;6.00;;;;;20.18;100.00;102284.81;5069969;28;45510;-68
2021/06/05 20:20:20;;;;;;;;;18.75;16.75;;;;;20.16;100.00;102290.16;5065147;28;46245;-68
2021/06/05 20:22:51;;;;;;;;;15.00;13.75;;;;;20.10;100.00;102289.44;5069212;28;45771;-70
2021/06/05 20:25:19;;;;;;;;;8.00;8.00;;;;;20.08;100.00;102292.13;5070759;28;45827;-68
2021/06/05 20:27:45;;;;;;;;;8.00;7.50;;;;;20.04;100.00;102287.84;5072279;28;45530;-68
2021/06/05 20:30:11;;;;;;;;;7.00;6.25;;;;;19.94;100.00;102286.38;5066130;27;45741;-72
2021/06/05 20:32:37;;;;;;;;;5.50;5.50;;;;;19.87;100.00;102282.16;5061416;27;45499;-70
2021/06/05 20:35:05;;;;;;;;;9.75;6.50;;;;;19.89;100.00;102290.91;5071418;28;45913;-69
2021/06/05 20:37:31;;;;;;;;;7.50;6.75;;;;;19.88;100.00;102298.00;5062385;27;45625;-69
2021/06/05 20:39:56;;;;;;;;;8.75;7.00;;;;;19.82;100.00;102292.88;5062246;28;46208;-70
2021/06/05 20:42:22;;;;;;;;;7.50;5.75;;;;;19.83;100.00;102304.34;5066302;27;45429;-67
2021/06/05 20:44:47;;;;;;;;;7.25;6.75;;;;;19.75;100.00;102293.97;5062310;27;45433;-70
2021/06/05 20:47:13;;;;;;;;;7.50;6.00;;;;;19.74;100.00;102300.19;5057906;28;45356;-64
2021/06/05 20:49:39;;;;;;;;;6.00;5.00;;;;;19.71;100.00;102310.88;5065450;28;45469;-73
2021/06/05 20:52:05;;;;;;;;;6.50;5.75;;;;;19.71;100.00;102305.56;5070117;27;45682;-70
2021/06/05 20:54:32;;;;;;;;;9.50;7.25;;;;;19.64;100.00;102311.94;5067815;27;45561;-67
2021/06/05 20:57:01;;;;;;;;;7.25;6.75;;;;;19.66;100.00;102323.34;5067856;28;45930;-72
2021/06/05 20:59:27;;;;;;;;;8.50;8.00;;;;;19.58;100.00;102312.97;5070486;27;46466;-69
2021/06/05 21:01:53;;;;;;;;;7.00;7.00;;;;;19.58;100.00;102325.34;5074189;28;45842;-72
2021/06/05 21:04:18;;;;;;;;;9.00;7.25;;;;;19.56;100.00;102338.66;5075707;27;45454;-71
2021/06/05 21:06:44;;;;;;;;;7.00;6.00;;;;;19.56;100.00;102340.41;5076570;28;45474;-69
2021/06/05 21:09:11;;;;;;;;;8.25;8.25;;;;;19.46;100.00;102321.22;5077604;27;46665;-68
2021/06/05 21:11:37;;;;;;;;;11.25;8.50;;;;;19.46;100.00;102330.91;5079252;27;45375;-67
2021/06/05 21:14:03;;;;;;;;;9.25;8.00;;;;;19.40;100.00;102331.97;5078689;27;45511;-70
2021/06/05 21:16:31;;;;;;;;;9.25;7.50;;;;;19.45;100.00;102329.19;5078863;27;45391;-68
2021/06/05 21:18:59;;;;;;;;;8.00;7.25;;;;;19.45;100.00;102340.66;5078233;27;45504;-69
2021/06/05 21:21:28;;;;;;;;;7.50;7.00;;;;;19.41;100.00;102333.69;5079022;27;45393;-68
2021/06/05 21:23:56;;;;;;;;;7.75;7.00;;;;;19.36;100.00;102337.38;5078737;27;45425;-68
2021/06/05 21:26:23;;;;;;;;;9.25;8.75;;;;;19.29;100.00;102328.72;5094141;27;45482;-65
2021/06/05 21:28:48;;;;;;;;;8.00;8.00;;;;;19.26;100.00;102328.81;5078428;28;45737;-68
2021/06/05 21:31:14;;;;;;;;;8.00;7.25;;;;;19.21;100.00;102331.53;5072200;28;45566;-68
2021/06/05 21:33:40;;;;;;;;;9.00;8.75;;;;;19.22;100.00;102335.94;5078727;27;45343;-68
2021/06/05 21:36:06;;;;;;;;;11.00;9.75;;;;;19.20;100.00;102335.09;5078862;27;45422;-69
2021/06/05 21:38:33;;;;;;;;;10.00;9.00;;;;;19.11;100.00;102331.81;5078088;27;46211;-67
2021/06/05 21:41:01;;;;;;;;;9.50;9.25;;;;;19.08;100.00;102337.19;5078225;27;45596;-68
2021/06/05 21:43:29;;;;;;;;;10.00;8.25;;;;;19.12;100.00;102349.44;5067770;27;45398;-65
2021/06/05 21:45:54;;;;;;;;;4.50;4.00;;;;;19.03;100.00;102334.66;5074899;28;45521;-66
2021/06/05 21:48:20;;;;;;;;;9.00;7.25;;;;;19.05;100.00;102337.28;5076721;28;46992;-66
2021/06/05 21:50:48;;;;;;;;;8.50;6.50;;;;;18.98;100.00;102328.59;5078412;27;45492;-71
2021/06/05 21:53:16;;;;;;;;;11.00;8.50;;;;;19.03;100.00;102345.25;5078996;28;45463;-66
2021/06/05 21:55:41;;;;;;;;;9.25;8.25;;;;;19.01;100.00;102352.38;5078399;28;45571;-66
2021/06/05 21:58:07;;;;;;;;;8.25;8.25;;;;;18.97;100.00;102358.59;5078251;27;45543;-67
2021/06/05 22:00:32;;;;;;;;;9.00;8.00;;;;;18.94;100.00;102362.19;5078667;27;45281;-66
2021/06/05 22:03:14;;;;;;;;;10.50;10.25;;;;;18.93;100.00;102364.88;5076688;27;45436;-68
2021/06/05 22:05:47;;;;;;;;;9.25;8.50;;;;;18.83;100.00;102345.72;5070438;27;45484;-66
2021/06/05 22:08:15;;;;;;;;;9.25;7.25;;;;;18.88;100.00;102364.13;5070656;28;45481;-65
2021/06/05 22:10:41;;;;;;;;;8.00;8.00;;;;;18.86;100.00;102365.94;5078803;27;45379;-66
2021/06/05 22:13:07;;;;;;;;;11.25;10.00;;;;;18.82;100.00;102362.50;5078136;27;45476;-66
2021/06/05 22:15:36;;;;;;;;;12.75;11.00;;;;;18.79;100.00;102359.94;5076695;27;45822;-66
2021/06/05 22:18:01;;;;;;;;;12.25;10.75;;;;;18.77;100.00;102367.00;5065233;27;46750;-69
2021/06/05 22:20:27;;;;;;;;;9.00;9.00;;;;;18.72;100.00;102368.00;5075072;28;45399;-66
2021/06/05 22:22:52;;;;;;;;;10.00;9.50;;;;;18.67;100.00;102368.13;5078162;27;45419;-65
2021/06/05 22:25:21;;;;;;;;;9.00;8.75;;;;;18.70;100.00;102359.25;5078463;27;45386;-65
2021/06/05 22:27:51;;;;;;;;;7.50;7.50;;;;;18.67;100.00;102361.06;5076431;28;46491;-66
2021/06/05 22:30:24;;;;;;;;;9.00;9.00;;;;;18.63;100.00;102358.50;5069778;28;45390;-66
2021/06/05 22:32:50;;;;;;;;;8.75;8.00;;;;;18.60;100.00;102355.91;5066150;28;45276;-65
2021/06/05 22:35:15;;;;;;;;;12.50;10.75;;;;;18.56;100.00;102352.47;5063927;27;45387;-66
2021/06/05 22:37:41;;;;;;;;;9.00;8.00;;;;;18.50;100.00;102349.06;5078209;28;46249;-68
2021/06/05 22:40:11;;;;;;;;;7.00;7.00;;;;;18.53;100.00;102368.38;5070453;27;45574;-66
2021/06/05 22:42:36;;;;;;;;;10.75;9.00;;;;;18.45;100.00;102351.81;5073171;28;45549;-65
2021/06/05 22:45:02;;;;;;;;;11.00;11.00;;;;;18.50;100.00;102367.56;5070176;28;45408;-66
2021/06/05 22:47:28;;;;;;;;;30.00;26.00;;;;;18.40;100.00;102358.97;5075962;28;48285;-69
2021/06/05 22:49:53;;;;;;;;;21.75;19.25;;;;;18.39;100.00;102357.22;5077867;28;45330;-69
2021/06/05 22:52:20;;;;;;;;;24.25;21.75;;;;;18.34;100.00;102345.88;5077486;27;45393;-66
2021/06/05 22:54:46;;;;;;;;;21.50;19.50;;;;;18.35;100.00;102353.78;5077805;27;45392;-65
2021/06/05 22:57:11;;;;;;;;;23.00;21.50;;;;;18.36;100.00;102355.53;5077593;27;46315;-65
2021/06/05 22:59:36;;;;;;;;;21.25;19.25;;;;;18.34;100.00;102359.09;5076208;28;45509;-66
2021/06/05 23:02:02;;;;;;;;;25.50;20.00;;;;;18.34;100.00;102353.81;5077156;28;45678;-66
2021/06/05 23:04:28;;;;;;;;;19.00;18.25;;;;;18.29;100.00;102359.19;5078024;28;45384;-65
2021/06/05 23:06:53;;;;;;;;;18.75;18.25;;;;;18.25;100.00;102351.34;5063451;27;46756;-66
2021/06/05 23:09:19;;;;;;;;;20.75;17.00;;;;;18.21;100.00;102347.91;5062774;28;45615;-65
2021/06/05 23:11:51;;;;;;;;;17.75;15.25;;;;;18.19;100.00;102352.34;5077936;27;45720;-65
2021/06/05 23:14:18;;;;;;;;;18.25;15.00;;;;;18.21;100.00;102354.97;5077596;27;45394;-65
2021/06/05 23:16:44;;;;;;;;;16.25;15.75;;;;;18.15;100.00;102345.38;5076366;27;47113;-65
2021/06/05 23:19:10;;;;;;;;;13.75;13.00;;;;;18.15;100.00;102363.91;5077219;28;45665;-66
2021/06/05 23:21:38;;;;;;;;;18.00;15.75;;;;;18.14;100.00;102363.94;5077514;27;45348;-64
2021/06/05 23:24:06;;;;;;;;;13.50;11.00;;;;;18.09;100.00;102357.84;5077176;27;45439;-65
2021/06/05 23:26:32;;;;;;;;;18.25;16.00;;;;;18.05;100.00;102359.66;5075330;27;47769;-65
2021/06/05 23:28:58;;;;;;;;;19.00;17.75;;;;;18.03;100.00;102364.13;5062877;27;45679;-64
2021/06/05 23:31:24;;;;;;;;;14.75;14.50;;;;;18.02;100.00;102363.25;5062096;28;45371;-68
2021/06/05 23:33:50;;;;;;;;;12.75;12.75;;;;;18.00;100.00;102359.75;5072937;27;45525;-64
2021/06/05 23:36:15;;;;;;;;;12.00;11.00;;;;;17.97;100.00;102362.47;5073755;28;45695;-64
2021/06/05 23:38:43;;;;;;;;;13.00;12.25;;;;;17.96;100.00;102366.00;5075424;28;45977;-65
2021/06/05 23:41:23;;;;;;;;;15.50;12.00;;;;;17.91;100.00;102365.25;5061442;28;45466;-65
2021/06/05 23:43:49;;;;;;;;;11.25;10.75;;;;;17.86;100.00;102366.19;5075005;28;45266;-69
2021/06/05 23:46:15;;;;;;;;;12.50;12.25;;;;;17.79;100.00;102354.00;5076504;27;46047;-65
2021/06/05 23:48:44;;;;;;;;;13.50;12.25;;;;;17.79;100.00;102373.38;5069036;27;45424;-65
2021/06/05 23:51:11;;;;;;;;;11.25;9.25;;;;;17.67;100.00;102357.72;5070824;28;45876;-71
2021/06/05 23:53:37;;;;;;;;;10.00;10.00;;;;;17.66;100.00;102358.63;5063310;28;45427;-66
2021/06/05 23:56:03;;;;;;;;;9.00;8.25;;;;;17.64;100.00;102376.25;5076848;27;45466;-66
2021/06/05 23:58:29;;;;;;;;;11.00;9.50;;;;;17.64;100.00;102378.88;5076084;28;45501;-66
